sensor_id;sensor_type;location;lat;lon;timestamp;temperature;humidity
1205;DHT22;592;48.764;9.174;2022-11-04T00:02:01;11.00;99.90
1205;DHT22;592;48.764;9.174;2022-11-04T00:04:28;11.00;99.90
1205;DHT22;592;48.764;9.174;2022-11-04T00:06:57;11.00;99.90
1205;DHT22;592;48.764;9.174;2022-11-04T00:09:25;11.00;99.90
1205;DHT22;592;48.764;9.174;2022-11-04T00:11:53;11.00;99.90
1205;DHT22;592;48.764;9.174;2022-11-04T00:14:42;11.00;99.90
1205;DHT22;592;48.764;9.174;2022-11-04T00:17:10;11.10;99.90
1205;DHT22;592;48.764;9.174;2022-11-04T00:19:47;11.00;99.90
1205;DHT22;592;48.764;9.174;2022-11-04T00:22:33;10.90;99.90
1205;DHT22;592;48.764;9.174;2022-11-04T00:25:18;10.80;99.90
1205;DHT22;592;48.764;9.174;2022-11-04T00:28:10;10.80;99.90
1205;DHT22;592;48.764;9.174;2022-11-04T00:30:55;10.90;99.90
1205;DHT22;592;48.764;9.174;2022-11-04T00:33:23;10.90;99.90
1205;DHT22;592;48.764;9.174;2022-11-04T00:35:53;10.90;99.90
1205;DHT22;592;48.764;9.174;2022-11-04T00:38:22;10.80;99.90
1205;DHT22;592;48.764;9.174;2022-11-04T00:40:49;10.80;99.90
1205;DHT22;592;48.764;9.174;2022-11-04T00:43:15;10.80;99.90
1205;DHT22;592;48.764;9.174;2022-11-04T00:45:42;10.90;99.90
1205;DHT22;592;48.764;9.174;2022-11-04T00:48:09;10.90;99.90
1205;DHT22;592;48.764;9.174;2022-11-04T00:50:36;10.80;99.90
1205;DHT22;592;48.764;9.174;2022-11-04T00:53:04;10.80;99.90
1205;DHT22;592;48.764;9.174;2022-11-04T00:55:32;10.80;99.90
1205;DHT22;592;48.764;9.174;2022-11-04T00:57:58;10.80;99.90
1205;DHT22;592;48.764;9.174;2022-11-04T01:00:25;10.70;99.90
1205;DHT22;592;48.764;9.174;2022-11-04T01:02:52;10.70;99.90
1205;DHT22;592;48.764;9.174;2022-11-04T01:05:19;10.70;99.90
1205;DHT22;592;48.764;9.174;2022-11-04T01:07:45;10.70;99.90
1205;DHT22;592;48.764;9.174;2022-11-04T01:10:12;10.70;99.90
1205;DHT22;592;48.764;9.174;2022-11-04T01:12:40;10.70;99.90
1205;DHT22;592;48.764;9.174;2022-11-04T01:15:08;10.60;99.90
1205;DHT22;592;48.764;9.174;2022-11-04T01:17:35;10.70;99.90
1205;DHT22;592;48.764;9.174;2022-11-04T01:20:02;10.70;99.90
1205;DHT22;592;48.764;9.174;2022-11-04T01:22:29;10.60;99.90
1205;DHT22;592;48.764;9.174;2022-11-04T01:24:56;10.60;99.90
1205;DHT22;592;48.764;9.174;2022-11-04T01:27:23;10.70;99.90
1205;DHT22;592;48.764;9.174;2022-11-04T01:29:51;10.70;99.90
1205;DHT22;592;48.764;9.174;2022-11-04T01:32:17;10.70;99.90
1205;DHT22;592;48.764;9.174;2022-11-04T01:34:45;10.70;99.90
1205;DHT22;592;48.764;9.174;2022-11-04T01:37:12;10.70;99.90
1205;DHT22;592;48.764;9.174;2022-11-04T01:39:38;10.60;99.90
1205;DHT22;592;48.764;9.174;2022-11-04T01:42:06;10.70;99.90
1205;DHT22;592;48.764;9.174;2022-11-04T01:44:47;10.60;99.90
1205;DHT22;592;48.764;9.174;2022-11-04T01:47:18;10.60;99.90
1205;DHT22;592;48.764;9.174;2022-11-04T01:49:49;10.70;99.90
1205;DHT22;592;48.764;9.174;2022-11-04T01:52:21;10.60;99.90
1205;DHT22;592;48.764;9.174;2022-11-04T01:54:51;10.60;99.90
1205;DHT22;592;48.764;9.174;2022-11-04T01:57:24;10.60;99.90
1205;DHT22;592;48.764;9.174;2022-11-04T01:59:51;10.60;99.90
1205;DHT22;592;48.764;9.174;2022-11-04T02:02:20;10.60;99.90
1205;DHT22;592;48.764;9.174;2022-11-04T02:04:46;10.60;99.90
1205;DHT22;592;48.764;9.174;2022-11-04T02:07:13;10.60;99.90
1205;DHT22;592;48.764;9.174;2022-11-04T02:09:41;10.60;99.90
1205;DHT22;592;48.764;9.174;2022-11-04T02:12:09;10.50;99.90
1205;DHT22;592;48.764;9.174;2022-11-04T02:14:54;10.60;99.90
1205;DHT22;592;48.764;9.174;2022-11-04T02:17:40;10.50;99.90
1205;DHT22;592;48.764;9.174;2022-11-04T02:26:48;10.30;99.90
1205;DHT22;592;48.764;9.174;2022-11-04T02:29:30;10.30;99.90
1205;DHT22;592;48.764;9.174;2022-11-04T02:32:05;10.30;99.90
1205;DHT22;592;48.764;9.174;2022-11-04T02:34:40;10.30;99.90
1205;DHT22;592;48.764;9.174;2022-11-04T02:37:15;10.30;99.90
1205;DHT22;592;48.764;9.174;2022-11-04T02:39:50;10.30;99.90
1205;DHT22;592;48.764;9.174;2022-11-04T02:42:25;10.30;99.90
1205;DHT22;592;48.764;9.174;2022-11-04T02:45:04;10.30;99.90
1205;DHT22;592;48.764;9.174;2022-11-04T02:47:37;10.30;99.90
1205;DHT22;592;48.764;9.174;2022-11-04T02:50:09;10.20;99.90
1205;DHT22;592;48.764;9.174;2022-11-04T02:52:41;10.20;99.90
1205;DHT22;592;48.764;9.174;2022-11-04T02:55:13;10.30;99.90
1205;DHT22;592;48.764;9.174;2022-11-04T02:57:43;10.30;99.90
1205;DHT22;592;48.764;9.174;2022-11-04T03:00:14;10.20;99.90
1205;DHT22;592;48.764;9.174;2022-11-04T03:02:43;10.20;99.90
1205;DHT22;592;48.764;9.174;2022-11-04T03:05:14;10.20;99.90
1205;DHT22;592;48.764;9.174;2022-11-04T03:07:43;10.20;99.90
1205;DHT22;592;48.764;9.174;2022-11-04T03:10:13;10.20;99.90
1205;DHT22;592;48.764;9.174;2022-11-04T03:12:44;10.10;99.90
1205;DHT22;592;48.764;9.174;2022-11-04T03:15:18;10.20;99.90
1205;DHT22;592;48.764;9.174;2022-11-04T03:17:51;10.10;99.90
1205;DHT22;592;48.764;9.174;2022-11-04T03:20:23;10.10;99.90
1205;DHT22;592;48.764;9.174;2022-11-04T03:22:52;10.10;99.90
1205;DHT22;592;48.764;9.174;2022-11-04T03:25:27;10.20;99.90
1205;DHT22;592;48.764;9.174;2022-11-04T03:28:03;10.10;99.90
1205;DHT22;592;48.764;9.174;2022-11-04T03:30:37;10.10;99.90
1205;DHT22;592;48.764;9.174;2022-11-04T03:33:11;10.10;99.90
1205;DHT22;592;48.764;9.174;2022-11-04T03:35:42;10.00;99.90
1205;DHT22;592;48.764;9.174;2022-11-04T03:38:10;10.00;99.90
1205;DHT22;592;48.764;9.174;2022-11-04T03:40:36;10.00;99.90
1205;DHT22;592;48.764;9.174;2022-11-04T03:43:08;10.00;99.90
1205;DHT22;592;48.764;9.174;2022-11-04T03:45:38;10.00;99.90
1205;DHT22;592;48.764;9.174;2022-11-04T03:48:05;10.00;99.90
1205;DHT22;592;48.764;9.174;2022-11-04T03:50:38;10.00;99.90
1205;DHT22;592;48.764;9.174;2022-11-04T03:53:06;10.00;99.90
1205;DHT22;592;48.764;9.174;2022-11-04T03:55:40;10.00;99.90
1205;DHT22;592;48.764;9.174;2022-11-04T03:58:18;9.90;99.90
1205;DHT22;592;48.764;9.174;2022-11-04T04:00:52;10.00;99.90
1205;DHT22;592;48.764;9.174;2022-11-04T04:03:26;9.90;99.90
1205;DHT22;592;48.764;9.174;2022-11-04T04:05:58;9.80;99.90
1205;DHT22;592;48.764;9.174;2022-11-04T04:08:32;9.80;99.90
1205;DHT22;592;48.764;9.174;2022-11-04T04:11:06;9.70;99.90
1205;DHT22;592;48.764;9.174;2022-11-04T04:13:38;9.70;99.90
1205;DHT22;592;48.764;9.174;2022-11-04T04:16:10;9.90;99.90
1205;DHT22;592;48.764;9.174;2022-11-04T04:18:43;9.70;99.90
1205;DHT22;592;48.764;9.174;2022-11-04T04:21:16;9.70;99.90
1205;DHT22;592;48.764;9.174;2022-11-04T04:23:45;9.70;99.90
1205;DHT22;592;48.764;9.174;2022-11-04T04:26:32;9.80;99.90
1205;DHT22;592;48.764;9.174;2022-11-04T04:29:17;9.60;99.90
1205;DHT22;592;48.764;9.174;2022-11-04T04:31:47;9.30;99.90
1205;DHT22;592;48.764;9.174;2022-11-04T04:34:16;9.20;99.90
1205;DHT22;592;48.764;9.174;2022-11-04T04:36:45;9.30;99.90
1205;DHT22;592;48.764;9.174;2022-11-04T04:39:16;9.30;99.90
1205;DHT22;592;48.764;9.174;2022-11-04T04:42:01;9.40;99.90
1205;DHT22;592;48.764;9.174;2022-11-04T04:44:46;9.40;99.90
1205;DHT22;592;48.764;9.174;2022-11-04T04:47:30;9.40;99.90
1205;DHT22;592;48.764;9.174;2022-11-04T04:49:59;9.40;99.90
1205;DHT22;592;48.764;9.174;2022-11-04T04:52:29;9.50;99.90
1205;DHT22;592;48.764;9.174;2022-11-04T04:54:56;9.50;99.90
1205;DHT22;592;48.764;9.174;2022-11-04T04:57:23;9.40;99.90
1205;DHT22;592;48.764;9.174;2022-11-04T04:59:50;9.40;99.90
1205;DHT22;592;48.764;9.174;2022-11-04T05:02:16;9.40;99.90
1205;DHT22;592;48.764;9.174;2022-11-04T05:04:45;9.30;99.90
1205;DHT22;592;48.764;9.174;2022-11-04T05:07:11;9.20;99.90
1205;DHT22;592;48.764;9.174;2022-11-04T05:09:38;9.20;99.90
1205;DHT22;592;48.764;9.174;2022-11-04T05:12:05;9.10;99.90
1205;DHT22;592;48.764;9.174;2022-11-04T05:14:32;8.80;99.90
1205;DHT22;592;48.764;9.174;2022-11-04T05:16:59;8.70;99.90
1205;DHT22;592;48.764;9.174;2022-11-04T05:19:26;8.60;99.90
1205;DHT22;592;48.764;9.174;2022-11-04T05:21:54;8.60;99.90
1205;DHT22;592;48.764;9.174;2022-11-04T05:24:21;8.70;99.90
1205;DHT22;592;48.764;9.174;2022-11-04T05:26:48;8.60;99.90
1205;DHT22;592;48.764;9.174;2022-11-04T05:29:15;8.50;99.90
1205;DHT22;592;48.764;9.174;2022-11-04T05:31:44;8.70;99.90
1205;DHT22;592;48.764;9.174;2022-11-04T05:34:11;8.50;99.90
1205;DHT22;592;48.764;9.174;2022-11-04T05:36:38;8.60;99.90
1205;DHT22;592;48.764;9.174;2022-11-04T05:39:09;8.70;99.90
1205;DHT22;592;48.764;9.174;2022-11-04T05:41:36;8.80;99.90
1205;DHT22;592;48.764;9.174;2022-11-04T05:44:03;8.60;99.90
1205;DHT22;592;48.764;9.174;2022-11-04T05:46:31;8.60;99.90
1205;DHT22;592;48.764;9.174;2022-11-04T05:48:58;8.50;99.90
1205;DHT22;592;48.764;9.174;2022-11-04T05:51:26;8.60;99.90
1205;DHT22;592;48.764;9.174;2022-11-04T05:53:53;8.60;99.90
1205;DHT22;592;48.764;9.174;2022-11-04T05:56:21;8.60;99.90
1205;DHT22;592;48.764;9.174;2022-11-04T05:58:48;8.60;99.90
1205;DHT22;592;48.764;9.174;2022-11-04T06:01:24;8.40;99.90
1205;DHT22;592;48.764;9.174;2022-11-04T06:03:52;8.30;99.90
1205;DHT22;592;48.764;9.174;2022-11-04T06:06:19;8.20;99.90
1205;DHT22;592;48.764;9.174;2022-11-04T06:08:46;8.10;99.90
1205;DHT22;592;48.764;9.174;2022-11-04T06:11:12;8.20;99.90
1205;DHT22;592;48.764;9.174;2022-11-04T06:13:41;8.00;99.90
1205;DHT22;592;48.764;9.174;2022-11-04T06:16:07;8.00;99.90
1205;DHT22;592;48.764;9.174;2022-11-04T06:18:34;8.00;99.90
1205;DHT22;592;48.764;9.174;2022-11-04T06:21:09;8.10;99.90
1205;DHT22;592;48.764;9.174;2022-11-04T06:23:36;8.20;99.90
1205;DHT22;592;48.764;9.174;2022-11-04T06:26:03;8.30;99.90
1205;DHT22;592;48.764;9.174;2022-11-04T06:28:30;8.20;99.90
1205;DHT22;592;48.764;9.174;2022-11-04T06:30:59;8.30;99.90
1205;DHT22;592;48.764;9.174;2022-11-04T06:33:27;8.40;99.90
1205;DHT22;592;48.764;9.174;2022-11-04T06:35:56;8.50;99.90
1205;DHT22;592;48.764;9.174;2022-11-04T06:38:23;8.50;99.90
1205;DHT22;592;48.764;9.174;2022-11-04T06:40:50;8.60;99.90
1205;DHT22;592;48.764;9.174;2022-11-04T06:43:16;8.60;99.90
1205;DHT22;592;48.764;9.174;2022-11-04T06:45:43;8.60;99.90
1205;DHT22;592;48.764;9.174;2022-11-04T06:48:11;8.60;99.90
1205;DHT22;592;48.764;9.174;2022-11-04T06:50:38;8.60;99.90
1205;DHT22;592;48.764;9.174;2022-11-04T06:53:05;8.70;99.90
1205;DHT22;592;48.764;9.174;2022-11-04T06:55:32;8.80;99.90
1205;DHT22;592;48.764;9.174;2022-11-04T06:57:58;8.80;99.90
1205;DHT22;592;48.764;9.174;2022-11-04T07:00:25;8.80;99.90
1205;DHT22;592;48.764;9.174;2022-11-04T07:02:52;8.80;99.90
1205;DHT22;592;48.764;9.174;2022-11-04T07:05:20;8.80;99.90
1205;DHT22;592;48.764;9.174;2022-11-04T07:07:47;8.80;99.90
1205;DHT22;592;48.764;9.174;2022-11-04T07:10:13;8.80;99.90
1205;DHT22;592;48.764;9.174;2022-11-04T07:12:41;8.80;99.90
1205;DHT22;592;48.764;9.174;2022-11-04T07:15:08;8.90;99.90
1205;DHT22;592;48.764;9.174;2022-11-04T07:17:35;8.90;99.90
1205;DHT22;592;48.764;9.174;2022-11-04T07:20:03;9.00;99.90
1205;DHT22;592;48.764;9.174;2022-11-04T07:22:32;9.00;99.90
1205;DHT22;592;48.764;9.174;2022-11-04T07:25:03;8.90;99.90
1205;DHT22;592;48.764;9.174;2022-11-04T07:27:30;8.80;99.90
1205;DHT22;592;48.764;9.174;2022-11-04T07:32:36;8.70;99.90
1205;DHT22;592;48.764;9.174;2022-11-04T07:35:03;8.70;99.90
1205;DHT22;592;48.764;9.174;2022-11-04T07:37:31;8.80;99.90
1205;DHT22;592;48.764;9.174;2022-11-04T07:39:58;8.90;99.90
1205;DHT22;592;48.764;9.174;2022-11-04T07:42:25;9.00;99.90
1205;DHT22;592;48.764;9.174;2022-11-04T07:44:52;9.00;99.90
1205;DHT22;592;48.764;9.174;2022-11-04T07:47:19;9.10;99.90
1205;DHT22;592;48.764;9.174;2022-11-04T07:49:45;9.10;99.90
1205;DHT22;592;48.764;9.174;2022-11-04T07:52:12;9.20;99.90
1205;DHT22;592;48.764;9.174;2022-11-04T07:54:40;9.30;99.90
1205;DHT22;592;48.764;9.174;2022-11-04T07:57:07;9.30;99.90
1205;DHT22;592;48.764;9.174;2022-11-04T07:59:34;9.30;99.90
1205;DHT22;592;48.764;9.174;2022-11-04T08:02:01;9.20;99.90
1205;DHT22;592;48.764;9.174;2022-11-04T08:04:28;9.30;99.90
1205;DHT22;592;48.764;9.174;2022-11-04T08:06:54;9.10;99.90
1205;DHT22;592;48.764;9.174;2022-11-04T08:09:21;9.10;99.90
1205;DHT22;592;48.764;9.174;2022-11-04T08:11:50;9.10;99.90
1205;DHT22;592;48.764;9.174;2022-11-04T08:14:16;9.10;99.90
1205;DHT22;592;48.764;9.174;2022-11-04T08:16:43;9.10;99.90
1205;DHT22;592;48.764;9.174;2022-11-04T08:19:12;9.20;99.90
1205;DHT22;592;48.764;9.174;2022-11-04T08:21:39;9.30;99.90
1205;DHT22;592;48.764;9.174;2022-11-04T08:24:06;9.50;99.90
1205;DHT22;592;48.764;9.174;2022-11-04T08:26:32;9.60;99.90
1205;DHT22;592;48.764;9.174;2022-11-04T08:29:04;9.60;99.90
1205;DHT22;592;48.764;9.174;2022-11-04T08:31:31;9.60;99.90
1205;DHT22;592;48.764;9.174;2022-11-04T08:33:58;9.70;99.90
1205;DHT22;592;48.764;9.174;2022-11-04T08:36:27;9.80;99.90
1205;DHT22;592;48.764;9.174;2022-11-04T08:38:54;9.90;99.90
1205;DHT22;592;48.764;9.174;2022-11-04T08:41:24;10.10;99.90
1205;DHT22;592;48.764;9.174;2022-11-04T08:43:51;10.10;99.90
1205;DHT22;592;48.764;9.174;2022-11-04T08:46:20;10.20;99.90
1205;DHT22;592;48.764;9.174;2022-11-04T08:48:47;10.20;99.90
1205;DHT22;592;48.764;9.174;2022-11-04T08:51:17;10.20;99.90
1205;DHT22;592;48.764;9.174;2022-11-04T08:53:44;10.30;99.90
1205;DHT22;592;48.764;9.174;2022-11-04T08:56:12;10.40;99.90
1205;DHT22;592;48.764;9.174;2022-11-04T08:58:40;10.40;99.90
1205;DHT22;592;48.764;9.174;2022-11-04T09:01:07;10.40;99.90
1205;DHT22;592;48.764;9.174;2022-11-04T09:03:37;10.40;99.90
1205;DHT22;592;48.764;9.174;2022-11-04T09:06:05;10.40;99.90
1205;DHT22;592;48.764;9.174;2022-11-04T09:08:32;10.40;99.90
1205;DHT22;592;48.764;9.174;2022-11-04T09:10:58;10.40;99.90
1205;DHT22;592;48.764;9.174;2022-11-04T09:13:26;10.40;99.90
1205;DHT22;592;48.764;9.174;2022-11-04T09:15:53;10.50;99.90
1205;DHT22;592;48.764;9.174;2022-11-04T09:18:20;10.60;99.90
1205;DHT22;592;48.764;9.174;2022-11-04T09:20:49;10.60;99.90
1205;DHT22;592;48.764;9.174;2022-11-04T09:23:16;10.70;99.90
1205;DHT22;592;48.764;9.174;2022-11-04T09:25:42;10.70;99.90
1205;DHT22;592;48.764;9.174;2022-11-04T09:28:09;10.70;99.90
1205;DHT22;592;48.764;9.174;2022-11-04T09:30:36;10.80;99.90
1205;DHT22;592;48.764;9.174;2022-11-04T09:33:03;10.90;99.90
1205;DHT22;592;48.764;9.174;2022-11-04T09:35:30;10.80;99.90
1205;DHT22;592;48.764;9.174;2022-11-04T09:37:59;10.80;99.90
1205;DHT22;592;48.764;9.174;2022-11-04T09:40:27;10.90;99.90
1205;DHT22;592;48.764;9.174;2022-11-04T09:43:05;11.00;99.90
1205;DHT22;592;48.764;9.174;2022-11-04T09:45:37;11.10;99.90
1205;DHT22;592;48.764;9.174;2022-11-04T09:48:07;11.00;99.90
1205;DHT22;592;48.764;9.174;2022-11-04T09:50:44;11.10;99.90
1205;DHT22;592;48.764;9.174;2022-11-04T09:53:16;11.10;99.90
1205;DHT22;592;48.764;9.174;2022-11-04T09:55:49;11.00;99.90
1205;DHT22;592;48.764;9.174;2022-11-04T09:58:18;11.10;99.90
1205;DHT22;592;48.764;9.174;2022-11-04T10:00:51;11.20;99.90
1205;DHT22;592;48.764;9.174;2022-11-04T10:03:43;11.20;99.90
1205;DHT22;592;48.764;9.174;2022-11-04T10:06:24;11.20;99.90
1205;DHT22;592;48.764;9.174;2022-11-04T10:09:09;11.40;99.90
1205;DHT22;592;48.764;9.174;2022-11-04T10:11:45;11.60;99.90
1205;DHT22;592;48.764;9.174;2022-11-04T10:14:33;11.70;99.90
1205;DHT22;592;48.764;9.174;2022-11-04T10:17:17;11.70;99.90
1205;DHT22;592;48.764;9.174;2022-11-04T10:19:57;11.70;99.90
1205;DHT22;592;48.764;9.174;2022-11-04T10:22:31;11.80;99.90
1205;DHT22;592;48.764;9.174;2022-11-04T10:25:07;11.70;99.90
1205;DHT22;592;48.764;9.174;2022-11-04T10:27:37;11.70;99.90
1205;DHT22;592;48.764;9.174;2022-11-04T10:30:13;11.80;99.90
1205;DHT22;592;48.764;9.174;2022-11-04T10:32:50;11.90;99.90
1205;DHT22;592;48.764;9.174;2022-11-04T10:35:23;11.90;99.90
1205;DHT22;592;48.764;9.174;2022-11-04T10:37:54;11.90;99.90
1205;DHT22;592;48.764;9.174;2022-11-04T10:40:24;12.00;99.90
1205;DHT22;592;48.764;9.174;2022-11-04T10:42:54;12.10;99.90
1205;DHT22;592;48.764;9.174;2022-11-04T10:45:30;12.20;99.90
1205;DHT22;592;48.764;9.174;2022-11-04T10:48:04;12.20;99.90
1205;DHT22;592;48.764;9.174;2022-11-04T10:50:34;12.10;99.90
1205;DHT22;592;48.764;9.174;2022-11-04T10:53:12;12.20;99.90
1205;DHT22;592;48.764;9.174;2022-11-04T10:55:46;12.20;99.90
1205;DHT22;592;48.764;9.174;2022-11-04T10:58:19;12.10;99.90
1205;DHT22;592;48.764;9.174;2022-11-04T11:00:47;12.00;99.90
1205;DHT22;592;48.764;9.174;2022-11-04T11:03:26;11.90;99.90
1205;DHT22;592;48.764;9.174;2022-11-04T11:06:08;12.10;99.90
1205;DHT22;592;48.764;9.174;2022-11-04T11:08:35;12.00;99.90
1205;DHT22;592;48.764;9.174;2022-11-04T11:11:04;11.90;99.90
1205;DHT22;592;48.764;9.174;2022-11-04T11:13:35;11.80;99.90
1205;DHT22;592;48.764;9.174;2022-11-04T11:16:08;12.00;99.90
1205;DHT22;592;48.764;9.174;2022-11-04T11:18:36;12.10;99.90
1205;DHT22;592;48.764;9.174;2022-11-04T11:21:07;12.20;99.90
1205;DHT22;592;48.764;9.174;2022-11-04T11:23:42;12.20;99.90
1205;DHT22;592;48.764;9.174;2022-11-04T11:26:14;12.20;99.90
1205;DHT22;592;48.764;9.174;2022-11-04T11:28:47;12.00;99.90
1205;DHT22;592;48.764;9.174;2022-11-04T11:31:15;12.00;99.90
1205;DHT22;592;48.764;9.174;2022-11-04T11:33:56;12.00;99.90
1205;DHT22;592;48.764;9.174;2022-11-04T11:36:30;11.80;99.90
1205;DHT22;592;48.764;9.174;2022-11-04T11:39:02;11.70;99.90
1205;DHT22;592;48.764;9.174;2022-11-04T11:41:46;11.70;99.90
1205;DHT22;592;48.764;9.174;2022-11-04T11:44:22;11.90;99.90
1205;DHT22;592;48.764;9.174;2022-11-04T11:47:17;12.00;99.90
1205;DHT22;592;48.764;9.174;2022-11-04T11:49:44;12.10;99.90
1205;DHT22;592;48.764;9.174;2022-11-04T11:52:30;12.30;99.90
1205;DHT22;592;48.764;9.174;2022-11-04T11:55:02;12.50;99.90
1205;DHT22;592;48.764;9.174;2022-11-04T11:57:37;12.60;99.90
1205;DHT22;592;48.764;9.174;2022-11-04T12:00:11;12.70;99.90
1205;DHT22;592;48.764;9.174;2022-11-04T12:02:50;12.70;99.90
1205;DHT22;592;48.764;9.174;2022-11-04T12:05:25;12.80;99.90
1205;DHT22;592;48.764;9.174;2022-11-04T12:07:56;12.80;99.90
1205;DHT22;592;48.764;9.174;2022-11-04T12:10:29;12.80;99.90
1205;DHT22;592;48.764;9.174;2022-11-04T12:13:06;12.60;99.90
1205;DHT22;592;48.764;9.174;2022-11-04T12:15:47;12.60;99.90
1205;DHT22;592;48.764;9.174;2022-11-04T12:18:38;12.50;99.90
1205;DHT22;592;48.764;9.174;2022-11-04T12:21:12;12.30;99.90
1205;DHT22;592;48.764;9.174;2022-11-04T12:23:45;12.30;99.90
1205;DHT22;592;48.764;9.174;2022-11-04T12:26:24;12.00;99.90
1205;DHT22;592;48.764;9.174;2022-11-04T12:29:07;12.20;99.90
1205;DHT22;592;48.764;9.174;2022-11-04T12:31:45;12.30;99.90
1205;DHT22;592;48.764;9.174;2022-11-04T12:34:27;12.50;99.90
1205;DHT22;592;48.764;9.174;2022-11-04T12:37:07;12.50;99.90
1205;DHT22;592;48.764;9.174;2022-11-04T12:39:47;12.40;99.90
1205;DHT22;592;48.764;9.174;2022-11-04T12:42:24;12.50;99.90
1205;DHT22;592;48.764;9.174;2022-11-04T12:45:03;12.60;99.90
1205;DHT22;592;48.764;9.174;2022-11-04T12:47:35;12.60;99.90
1205;DHT22;592;48.764;9.174;2022-11-04T12:50:17;12.50;99.90
1205;DHT22;592;48.764;9.174;2022-11-04T12:52:59;12.50;99.90
1205;DHT22;592;48.764;9.174;2022-11-04T12:55:35;12.80;99.90
1205;DHT22;592;48.764;9.174;2022-11-04T12:58:20;12.90;99.90
1205;DHT22;592;48.764;9.174;2022-11-04T13:01:00;13.10;99.90
1205;DHT22;592;48.764;9.174;2022-11-04T13:03:32;13.30;99.90
1205;DHT22;592;48.764;9.174;2022-11-04T13:06:04;13.40;99.90
1205;DHT22;592;48.764;9.174;2022-11-04T13:08:36;13.30;99.90
1205;DHT22;592;48.764;9.174;2022-11-04T13:11:07;13.40;99.90
1205;DHT22;592;48.764;9.174;2022-11-04T13:13:51;13.50;99.90
1205;DHT22;592;48.764;9.174;2022-11-04T13:16:21;13.20;99.90
1205;DHT22;592;48.764;9.174;2022-11-04T13:18:49;13.40;99.90
1205;DHT22;592;48.764;9.174;2022-11-04T13:21:18;13.20;99.90
1205;DHT22;592;48.764;9.174;2022-11-04T13:23:51;13.10;99.90
1205;DHT22;592;48.764;9.174;2022-11-04T13:26:20;13.00;99.90
1205;DHT22;592;48.764;9.174;2022-11-04T13:28:51;13.00;99.90
1205;DHT22;592;48.764;9.174;2022-11-04T13:31:31;13.00;99.90
1205;DHT22;592;48.764;9.174;2022-11-04T13:34:07;12.90;99.90
1205;DHT22;592;48.764;9.174;2022-11-04T13:36:39;12.80;99.90
1205;DHT22;592;48.764;9.174;2022-11-04T13:39:14;12.80;99.90
1205;DHT22;592;48.764;9.174;2022-11-04T13:42:18;12.80;99.90
1205;DHT22;592;48.764;9.174;2022-11-04T13:44:48;12.80;99.90
1205;DHT22;592;48.764;9.174;2022-11-04T13:47:21;12.70;99.90
1205;DHT22;592;48.764;9.174;2022-11-04T13:49:51;12.60;99.90
1205;DHT22;592;48.764;9.174;2022-11-04T13:52:20;12.50;99.90
1205;DHT22;592;48.764;9.174;2022-11-04T13:54:53;11.70;99.90
1205;DHT22;592;48.764;9.174;2022-11-04T13:57:22;11.30;99.90
1205;DHT22;592;48.764;9.174;2022-11-04T14:00:18;11.40;99.90
1205;DHT22;592;48.764;9.174;2022-11-04T14:02:47;11.90;99.90
1205;DHT22;592;48.764;9.174;2022-11-04T14:08:21;11.90;99.90
1205;DHT22;592;48.764;9.174;2022-11-04T14:11:06;11.60;99.90
1205;DHT22;592;48.764;9.174;2022-11-04T14:16:42;11.70;99.90
1205;DHT22;592;48.764;9.174;2022-11-04T14:22:35;11.70;99.90
1205;DHT22;592;48.764;9.174;2022-11-04T14:25:19;11.60;99.90
1205;DHT22;592;48.764;9.174;2022-11-04T14:27:48;11.70;99.90
1205;DHT22;592;48.764;9.174;2022-11-04T14:30:45;11.70;99.90
1205;DHT22;592;48.764;9.174;2022-11-04T14:33:33;11.70;99.90
1205;DHT22;592;48.764;9.174;2022-11-04T14:36:30;11.60;99.90
1205;DHT22;592;48.764;9.174;2022-11-04T14:39:05;11.50;99.90
1205;DHT22;592;48.764;9.174;2022-11-04T14:41:50;11.60;99.90
1205;DHT22;592;48.764;9.174;2022-11-04T14:44:20;11.60;99.90
1205;DHT22;592;48.764;9.174;2022-11-04T14:46:52;11.60;99.90
1205;DHT22;592;48.764;9.174;2022-11-04T14:49:31;11.40;99.90
1205;DHT22;592;48.764;9.174;2022-11-04T14:52:02;10.80;99.90
1205;DHT22;592;48.764;9.174;2022-11-04T14:54:32;10.60;99.90
1205;DHT22;592;48.764;9.174;2022-11-04T14:57:08;10.80;99.90
1205;DHT22;592;48.764;9.174;2022-11-04T14:59:38;10.70;99.90
1205;DHT22;592;48.764;9.174;2022-11-04T15:02:11;10.80;99.90
1205;DHT22;592;48.764;9.174;2022-11-04T15:04:45;11.00;99.90
1205;DHT22;592;48.764;9.174;2022-11-04T15:07:24;11.10;99.90
1205;DHT22;592;48.764;9.174;2022-11-04T15:09:52;11.20;99.90
1205;DHT22;592;48.764;9.174;2022-11-04T15:12:19;11.20;99.90
1205;DHT22;592;48.764;9.174;2022-11-04T15:15:23;11.20;99.90
1205;DHT22;592;48.764;9.174;2022-11-04T15:17:51;11.30;99.90
1205;DHT22;592;48.764;9.174;2022-11-04T15:20:23;11.40;99.90
1205;DHT22;592;48.764;9.174;2022-11-04T15:22:50;11.40;99.90
1205;DHT22;592;48.764;9.174;2022-11-04T15:25:19;11.40;99.90
1205;DHT22;592;48.764;9.174;2022-11-04T15:27:45;11.30;99.90
1205;DHT22;592;48.764;9.174;2022-11-04T15:30:19;11.30;99.90
1205;DHT22;592;48.764;9.174;2022-11-04T15:32:54;11.30;99.90
1205;DHT22;592;48.764;9.174;2022-11-04T15:35:21;11.20;99.90
1205;DHT22;592;48.764;9.174;2022-11-04T15:37:48;10.90;99.90
1205;DHT22;592;48.764;9.174;2022-11-04T15:40:17;10.30;99.90
1205;DHT22;592;48.764;9.174;2022-11-04T15:42:45;10.20;99.90
1205;DHT22;592;48.764;9.174;2022-11-04T15:45:27;10.00;99.90
1205;DHT22;592;48.764;9.174;2022-11-04T15:48:26;9.80;99.90
1205;DHT22;592;48.764;9.174;2022-11-04T15:51:09;9.70;99.90
1205;DHT22;592;48.764;9.174;2022-11-04T15:53:46;9.90;99.90
1205;DHT22;592;48.764;9.174;2022-11-04T15:56:15;9.80;99.90
1205;DHT22;592;48.764;9.174;2022-11-04T15:58:44;10.00;99.90
1205;DHT22;592;48.764;9.174;2022-11-04T16:01:12;10.10;99.90
1205;DHT22;592;48.764;9.174;2022-11-04T16:03:40;10.10;99.90
1205;DHT22;592;48.764;9.174;2022-11-04T16:06:08;10.20;99.90
1205;DHT22;592;48.764;9.174;2022-11-04T16:08:35;10.20;99.90
1205;DHT22;592;48.764;9.174;2022-11-04T16:11:13;10.20;99.90
1205;DHT22;592;48.764;9.174;2022-11-04T16:13:41;10.30;99.90
1205;DHT22;592;48.764;9.174;2022-11-04T16:16:20;10.20;99.90
1205;DHT22;592;48.764;9.174;2022-11-04T16:18:50;10.00;99.90
1205;DHT22;592;48.764;9.174;2022-11-04T16:23:57;9.90;99.90
1205;DHT22;592;48.764;9.174;2022-11-04T16:26:28;10.00;99.90
1205;DHT22;592;48.764;9.174;2022-11-04T16:28:57;10.10;99.90
1205;DHT22;592;48.764;9.174;2022-11-04T16:31:28;10.10;99.90
1205;DHT22;592;48.764;9.174;2022-11-04T16:33:58;10.20;99.90
1205;DHT22;592;48.764;9.174;2022-11-04T16:36:24;10.20;99.90
1205;DHT22;592;48.764;9.174;2022-11-04T16:38:53;10.20;99.90
1205;DHT22;592;48.764;9.174;2022-11-04T16:41:20;10.20;99.90
1205;DHT22;592;48.764;9.174;2022-11-04T16:43:47;10.10;99.90
1205;DHT22;592;48.764;9.174;2022-11-04T16:46:15;9.90;99.90
1205;DHT22;592;48.764;9.174;2022-11-04T16:48:43;9.90;99.90
1205;DHT22;592;48.764;9.174;2022-11-04T16:51:14;9.80;99.90
1205;DHT22;592;48.764;9.174;2022-11-04T16:53:42;9.60;99.90
1205;DHT22;592;48.764;9.174;2022-11-04T16:56:09;9.40;99.90
1205;DHT22;592;48.764;9.174;2022-11-04T16:58:36;9.40;99.90
1205;DHT22;592;48.764;9.174;2022-11-04T17:01:03;9.50;99.90
1205;DHT22;592;48.764;9.174;2022-11-04T17:03:30;9.60;99.90
1205;DHT22;592;48.764;9.174;2022-11-04T17:05:58;9.80;99.90
1205;DHT22;592;48.764;9.174;2022-11-04T17:08:25;9.90;99.90
1205;DHT22;592;48.764;9.174;2022-11-04T17:10:52;9.90;99.90
1205;DHT22;592;48.764;9.174;2022-11-04T17:13:19;10.00;99.90